createdAt,value
2019-06-07T00:01:21.226Z,98949.38
2019-06-07T00:06:28.768Z,98902.73
2019-06-07T00:11:36.204Z,98905.06
2019-06-07T00:16:44.687Z,98906.38
2019-06-07T00:22:15.660Z,98927.64
2019-06-07T00:27:01.191Z,98929.77
2019-06-07T00:32:09.297Z,98924.18
2019-06-07T00:37:19.776Z,98918.30
2019-06-07T00:42:25.918Z,98901.95
2019-06-07T00:47:33.332Z,98890.20
2019-06-07T00:57:49.870Z,98885.77
2019-06-07T01:02:57.782Z,98886.13
2019-06-07T01:08:05.351Z,98915.14
2019-06-07T01:13:15.125Z,98897.86
2019-06-07T01:18:37.265Z,98921.66
2019-06-07T01:24:04.678Z,98931.39
2019-06-07T01:28:41.280Z,98921.32
2019-06-07T01:33:51.260Z,98898.53
2019-06-07T01:38:57.703Z,98877.28
2019-06-07T01:44:05.169Z,98890.47
2019-06-07T01:49:12.617Z,98895.87
2019-06-07T01:54:53.348Z,98904.39
2019-06-07T01:59:31.670Z,98899.61
2019-06-07T02:04:38.479Z,98906.85
2019-06-07T02:09:45.977Z,98917.14
2019-06-07T02:14:53.396Z,98922.30
2019-06-07T02:20:00.729Z,98919.60
2019-06-07T02:30:42.219Z,98929.05
2019-06-07T02:35:38.755Z,98930.69
2019-06-07T02:40:37.436Z,98937.55
2019-06-07T02:45:44.891Z,98934.03
2019-06-07T02:50:52.880Z,98924.55
2019-06-07T02:56:34.889Z,98925.92
2019-06-07T03:01:10.075Z,98924.62
2019-06-07T03:06:18.206Z,98932.17
2019-06-07T03:11:31.663Z,98943.19
2019-06-07T03:16:46.058Z,98943.02
2019-06-07T03:21:55.209Z,98941.95
2019-06-07T03:32:12.113Z,98945.61
2019-06-07T03:37:19.540Z,98946.94
2019-06-07T03:42:26.972Z,98950.26
2019-06-07T03:47:36.484Z,98957.72
2019-06-07T03:52:43.611Z,98961.48
2019-06-07T04:03:00.076Z,98967.27
2019-06-07T04:08:07.596Z,98963.08
2019-06-07T04:13:15.085Z,98964.78
2019-06-07T04:18:22.506Z,98955.92
2019-06-07T04:23:34.922Z,98963.08
2019-06-07T04:29:30.861Z,98964.36
2019-06-07T04:33:50.749Z,98965.32
2019-06-07T04:38:59.244Z,98968.61
2019-06-07T04:44:08.694Z,98961.09
2019-06-07T04:49:21.065Z,98967.89
2019-06-07T04:54:31.056Z,98973.61
2019-06-07T05:04:46.805Z,98967.08
2019-06-07T05:09:54.270Z,98968.97
2019-06-07T05:15:01.755Z,98974.37
2019-06-07T05:20:09.418Z,98974.85
2019-06-07T05:25:18.576Z,98975.55
2019-06-07T05:35:49.041Z,98974.16
2019-06-07T05:40:56.468Z,98972.05
2019-06-07T05:46:03.883Z,98980.49
2019-06-07T05:51:11.415Z,98972.97
2019-06-07T05:56:18.915Z,98965.64
2019-06-07T06:01:43.024Z,98973.88
2019-06-07T06:06:36.357Z,98982.23
2019-06-07T06:11:58.494Z,98976.53
2019-06-07T06:16:54.158Z,98978.38
2019-06-07T06:22:01.631Z,98973.40
2019-06-07T06:27:28.456Z,98967.84
2019-06-07T06:37:27.537Z,98973.92
2019-06-07T06:42:34.921Z,98978.25
2019-06-07T06:47:43.404Z,98985.39
2019-06-07T06:52:54.510Z,98976.33
2019-06-07T06:58:00.434Z,98976.25
2019-06-07T07:03:47.220Z,98971.62
2019-06-07T07:08:16.887Z,98971.00
2019-06-07T07:13:24.292Z,98982.38
2019-06-07T07:18:31.759Z,98972.07
2019-06-07T07:23:39.155Z,98973.91
2019-06-07T07:28:53.955Z,98982.70
2019-06-07T07:34:28.369Z,98991.81
2019-06-07T07:39:07.072Z,98999.73
2019-06-07T07:44:14.491Z,98993.61
2019-06-07T07:49:21.840Z,99002.80
2019-06-07T07:54:29.214Z,98996.77
2019-06-07T07:59:42.143Z,98995.61
2019-06-07T08:05:20.566Z,99001.14
2019-06-07T08:09:57.702Z,98992.30
2019-06-07T08:15:04.194Z,98998.23
2019-06-07T08:20:14.833Z,99001.05
2019-06-07T08:25:23.697Z,98989.58
2019-06-07T08:30:50.763Z,99000.21
2019-06-07T08:36:05.739Z,99008.56
2019-06-07T08:40:54.606Z,99009.55
2019-06-07T08:46:06.010Z,99004.45
2019-06-07T08:51:08.704Z,98998.80
2019-06-07T08:56:16.321Z,99002.84
2019-06-07T09:01:23.748Z,99001.83
2019-06-07T09:11:40.161Z,98975.53
2019-06-07T09:16:47.591Z,98984.91
2019-06-07T09:21:57.452Z,98975.30
2019-06-07T09:27:07.626Z,98974.42
2019-06-07T09:32:18.250Z,98970.88
2019-06-07T09:38:03.792Z,98970.70
2019-06-07T09:42:31.542Z,98961.52
2019-06-07T09:47:38.877Z,98956.16
2019-06-07T09:52:57.853Z,98959.97
2019-06-07T09:57:58.253Z,98953.56
2019-06-07T10:03:16.753Z,98966.18
2019-06-07T10:09:15.166Z,98962.22
2019-06-07T10:13:22.626Z,98962.03
2019-06-07T10:18:31.165Z,98952.52
2019-06-07T10:23:38.617Z,98940.46
2019-06-07T10:28:46.121Z,98931.07
2019-06-07T10:33:53.365Z,98927.47
2019-06-07T10:39:00.829Z,98920.95
2019-06-07T10:44:09.707Z,98917.30
2019-06-07T10:49:18.255Z,98905.38
2019-06-07T10:54:30.393Z,98894.45
2019-06-07T10:59:34.631Z,98893.46
2019-06-07T11:04:42.041Z,98880.53
2019-06-07T11:10:05.703Z,98874.85
2019-06-07T11:14:58.518Z,98870.53
2019-06-07T11:20:08.313Z,98858.34
2019-06-07T11:25:16.328Z,98858.17
2019-06-07T11:30:23.805Z,98859.10
2019-06-07T11:35:31.385Z,98860.38
2019-06-07T11:40:38.755Z,98853.17
2019-06-07T11:45:46.115Z,98845.30
2019-06-07T11:50:53.578Z,98842.17
2019-06-07T11:56:00.981Z,98835.75
2019-06-07T12:01:09.579Z,98825.04
2019-06-07T12:06:18.137Z,98828.52
2019-06-07T12:11:25.557Z,98818.88
2019-06-07T12:16:32.932Z,98814.21
2019-06-07T12:21:40.400Z,98806.55
2019-06-07T12:26:47.757Z,98796.45
2019-06-07T12:31:55.225Z,98796.43
2019-06-07T12:37:02.704Z,98788.18
2019-06-07T12:42:10.212Z,98784.32
2019-06-07T12:47:18.859Z,98780.89
2019-06-07T12:52:26.423Z,98774.84
2019-06-07T12:57:33.851Z,98771.50
2019-06-07T13:02:41.276Z,98754.16
2019-06-07T13:07:48.618Z,98750.52
2019-06-07T13:12:56.098Z,98748.04
2019-06-07T13:18:03.574Z,98745.66
2019-06-07T13:23:11.002Z,98739.14
2019-06-07T13:28:18.960Z,98730.76
2019-06-07T13:33:31.982Z,98722.89
2019-06-07T13:38:35.465Z,98716.73
2019-06-07T13:43:42.921Z,98715.43
2019-06-07T13:48:50.259Z,98715.27
2019-06-07T13:53:58.777Z,98709.88
2019-06-07T13:59:06.308Z,98698.68
2019-06-07T14:04:13.828Z,98694.48
2019-06-07T14:09:21.262Z,98683.09
2019-06-07T14:14:29.510Z,98672.84
2019-06-07T14:19:37.653Z,98677.43
2019-06-07T14:24:45.021Z,98672.97
2019-06-07T14:29:52.439Z,98669.67
2019-06-07T14:35:00.139Z,98657.41
2019-06-07T14:40:08.919Z,98664.05
2019-06-07T14:45:17.556Z,98650.33
2019-06-07T14:50:26.086Z,98652.47
2019-06-07T14:55:33.415Z,98657.44
2019-06-07T15:00:45.939Z,98650.39
2019-06-07T15:05:53.291Z,98644.67
2019-06-07T15:11:00.677Z,98630.24
2019-06-07T15:16:08.067Z,98630.46
2019-06-07T15:21:15.493Z,98622.86
2019-06-07T15:26:22.885Z,98615.34
2019-06-07T15:31:30.286Z,98615.62
2019-06-07T15:36:39.182Z,98621.45
2019-06-07T15:41:46.594Z,98609.16
2019-06-07T15:46:53.942Z,98620.16
2019-06-07T15:52:01.315Z,98617.95
2019-06-07T15:57:08.645Z,98621.23
2019-06-07T16:02:15.982Z,98622.58
2019-06-07T16:07:23.431Z,98623.93
2019-06-07T16:12:30.937Z,98621.19
2019-06-07T16:17:39.223Z,98622.88
2019-06-07T16:22:46.754Z,98608.07
2019-06-07T16:27:54.133Z,98603.07
2019-06-07T16:33:01.552Z,98607.95
2019-06-07T16:38:09.097Z,98603.44
2019-06-07T16:43:18.185Z,98596.50
2019-06-07T16:48:25.585Z,98597.52
2019-06-07T16:53:33.058Z,98599.85
2019-06-07T16:58:40.397Z,98606.33
2019-06-07T17:03:47.909Z,98602.21
2019-06-07T17:08:58.019Z,98596.65
2019-06-07T17:14:06.574Z,98596.00
2019-06-07T17:19:14.107Z,98586.72
2019-06-07T17:24:21.526Z,98592.17
2019-06-07T17:29:29.044Z,98582.31
2019-06-07T17:34:36.427Z,98583.31
2019-06-07T17:39:44.963Z,98576.89
2019-06-07T17:44:52.577Z,98579.52
2019-06-07T17:49:59.938Z,98574.56
2019-06-07T17:55:08.136Z,98573.83
2019-06-07T18:00:33.426Z,98567.93
2019-06-07T18:05:25.885Z,98569.54
2019-06-07T18:10:38.748Z,98564.53
2019-06-07T18:15:52.816Z,98559.57
2019-06-07T18:20:56.939Z,98555.61
2019-06-07T18:26:04.308Z,98555.77
2019-06-07T18:31:11.821Z,98548.97
2019-06-07T18:36:19.237Z,98546.89
2019-06-07T18:41:26.487Z,98541.75
2019-06-07T18:46:33.875Z,98545.42
2019-06-07T18:51:41.272Z,98539.57
2019-06-07T18:56:48.846Z,98541.06
2019-06-07T19:01:57.598Z,98536.00
2019-06-07T19:07:05.136Z,98532.97
2019-06-07T19:12:12.554Z,98531.91
2019-06-07T19:17:20.039Z,98536.88
2019-06-07T19:22:27.472Z,98541.38
2019-06-07T19:27:35.082Z,98547.39
2019-06-07T19:32:42.607Z,98547.02
2019-06-07T19:37:50.017Z,98545.84
2019-06-07T19:42:58.637Z,98548.28
2019-06-07T19:48:06.488Z,98553.39
2019-06-07T19:53:13.980Z,98554.34
2019-06-07T19:58:21.546Z,98542.58
2019-06-07T20:03:29.134Z,98530.48
2019-06-07T20:08:36.722Z,98544.63
2019-06-07T20:13:45.845Z,98542.30
2019-06-07T20:18:53.342Z,98531.16
2019-06-07T20:24:22.017Z,98550.05
2019-06-07T20:29:24.877Z,98543.13
2019-06-07T20:34:19.052Z,98542.47
2019-06-07T20:39:26.578Z,98544.61
2019-06-07T20:44:34.029Z,98546.97
2019-06-07T20:49:41.454Z,98547.59
2019-06-07T20:54:48.780Z,98555.36
2019-06-07T20:59:56.206Z,98543.97
2019-06-07T21:05:03.645Z,98556.54
2019-06-07T21:10:11.454Z,98543.31
2019-06-07T21:15:19.377Z,98539.23
2019-06-07T21:20:26.818Z,98536.40
2019-06-07T21:25:34.370Z,98543.70
2019-06-07T21:30:42.264Z,98542.09
2019-06-07T21:35:49.715Z,98532.34
2019-06-07T21:40:57.163Z,98536.83
2019-06-07T21:46:09.340Z,98526.98
2019-06-07T21:51:13.709Z,98541.44
2019-06-07T21:56:21.145Z,98556.39
2019-06-07T22:01:33.547Z,98557.19
2019-06-07T22:06:40.989Z,98560.11
2019-06-07T22:11:49.404Z,98563.73
2019-06-07T22:16:59.346Z,98569.69
2019-06-07T22:22:09.329Z,98572.08
2019-06-07T22:27:17.721Z,98572.18
2019-06-07T22:32:25.315Z,98572.06
2019-06-07T22:37:32.753Z,98568.45
2019-06-07T22:42:40.109Z,98570.23
2019-06-07T22:47:47.489Z,98560.78
2019-06-07T22:52:55.024Z,98561.34
2019-06-07T22:58:02.484Z,98561.55
2019-06-07T23:03:10.661Z,98563.82
2019-06-07T23:08:19.106Z,98587.91
2019-06-07T23:13:26.525Z,98593.26
2019-06-07T23:18:33.981Z,98612.14
2019-06-07T23:23:41.408Z,98633.48
2019-06-07T23:28:48.786Z,98646.66
2019-06-07T23:33:56.196Z,98649.84
2019-06-07T23:39:05.252Z,98649.80
2019-06-07T23:44:13.310Z,98675.00
2019-06-07T23:49:22.421Z,98730.63
2019-06-07T23:54:30.046Z,98771.79
2019-06-07T23:59:37.482Z,98773.78
